Time;durP1;ratioP1;P1;durP2;ratioP2;P2;SDS_P1;SDS_P2;PMS_P1;PMS_P2;Temp;Humidity;BMP_temperature;BMP_pressure;BME280_temperature;BME280_humidity;BME280_pressure;Samples;Min_cycle;Max_cycle;Signal;HPM_P1;HPM_P2
2023/09/12 00:01:10;;;;;;;28.95;23.77;;;19.00;99.90;;;;;;5036047;28;20113;-66
2023/09/12 00:03:35;;;;;;;39.22;28.27;;;18.90;99.90;;;;;;5054661;28;20116;-66
2023/09/12 00:06:03;;;;;;;31.92;25.02;;;18.90;99.90;;;;;;5037122;28;20496;-66
2023/09/12 00:08:29;;;;;;;32.92;25.65;;;18.90;99.90;;;;;;5053564;28;20037;-66
2023/09/12 00:11:04;;;;;;;31.38;24.48;;;18.90;99.90;;;;;;5055015;28;20039;-66
2023/09/12 00:13:31;;;;;;;33.42;25.55;;;18.90;99.90;;;;;;5036406;28;20508;-66
2023/09/12 00:15:57;;;;;;;37.72;25.85;;;19.00;99.90;;;;;;5036274;28;20125;-66
2023/09/12 00:18:23;;;;;;;33.88;25.05;;;18.90;99.90;;;;;;5054346;28;20175;-66
2023/09/12 00:20:50;;;;;;;30.73;23.60;;;18.90;99.90;;;;;;5035897;28;20076;-66
2023/09/12 00:23:16;;;;;;;36.30;27.17;;;18.90;99.90;;;;;;5036288;28;20083;-66
2023/09/12 00:25:41;;;;;;;32.88;25.40;;;18.80;99.90;;;;;;5036460;28;20040;-66
2023/09/12 00:28:07;;;;;;;28.90;24.38;;;18.80;99.90;;;;;;5053165;28;20040;-66
2023/09/12 00:30:33;;;;;;;35.13;26.90;;;18.80;99.90;;;;;;5036285;28;20402;-66
2023/09/12 00:32:58;;;;;;;33.80;25.13;;;18.80;99.90;;;;;;5054606;28;20119;-66
2023/09/12 00:35:24;;;;;;;37.58;28.15;;;18.70;99.90;;;;;;5035269;28;20040;-66
2023/09/12 00:37:50;;;;;;;35.00;26.33;;;18.70;99.90;;;;;;5036052;28;20394;-66
2023/09/12 00:40:15;;;;;;;34.83;26.85;;;18.60;99.90;;;;;;5035586;28;20045;-66
2023/09/12 00:42:41;;;;;;;38.80;29.40;;;18.60;99.90;;;;;;5035167;28;20083;-66
2023/09/12 00:45:07;;;;;;;37.38;27.17;;;18.70;99.90;;;;;;5036085;28;20394;-66
2023/09/12 00:47:33;;;;;;;36.88;26.95;;;18.60;99.90;;;;;;5035826;28;20055;-66
2023/09/12 00:50:00;;;;;;;31.45;25.08;;;18.50;99.90;;;;;;5035582;28;20041;-66
2023/09/12 00:52:27;;;;;;;35.72;27.35;;;18.60;99.90;;;;;;5019073;28;20123;-66
2023/09/12 00:54:54;;;;;;;29.05;23.92;;;18.60;99.90;;;;;;5032496;28;20061;-66
2023/09/12 00:57:21;;;;;;;34.58;26.92;;;18.60;99.90;;;;;;5015397;28;20037;-66
2023/09/12 00:59:51;;;;;;;39.35;29.02;;;18.60;99.90;;;;;;5016047;28;20029;-66
2023/09/12 01:02:21;;;;;;;36.58;26.77;;;18.50;99.90;;;;;;5032221;28;20040;-66
2023/09/12 01:04:48;;;;;;;34.88;26.88;;;18.60;99.90;;;;;;5031495;28;20041;-66
2023/09/12 01:07:14;;;;;;;36.22;27.88;;;18.60;99.90;;;;;;5032011;28;20049;-66
2023/09/12 01:09:40;;;;;;;34.80;27.38;;;18.60;99.90;;;;;;5031978;28;20052;-66
2023/09/12 01:12:06;;;;;;;39.92;31.23;;;18.60;99.90;;;;;;5032092;28;20037;-67
2023/09/12 01:14:32;;;;;;;37.67;28.80;;;18.60;99.90;;;;;;5033363;28;20088;-66
2023/09/12 01:16:59;;;;;;;30.60;24.25;;;18.40;99.90;;;;;;5015616;28;20434;-66
2023/09/12 01:19:25;;;;;;;33.28;26.75;;;18.50;99.90;;;;;;5031936;28;20081;-67
2023/09/12 01:22:23;;;;;;;40.88;28.83;;;18.60;99.90;;;;;;5031773;28;20096;-67
2023/09/12 01:25:07;;;;;;;35.85;27.15;;;18.50;99.90;;;;;;5031096;28;20056;-67
2023/09/12 01:27:43;;;;;;;41.65;31.08;;;18.50;99.90;;;;;;5031765;28;20041;-67
2023/09/12 01:30:10;;;;;;;34.42;28.05;;;18.50;99.90;;;;;;5033463;28;20048;-67
2023/09/12 01:32:37;;;;;;;43.88;30.52;;;18.50;99.90;;;;;;5032048;28;20512;-67
2023/09/12 01:35:03;;;;;;;30.25;26.80;;;18.40;99.90;;;;;;5032869;28;20044;-64
2023/09/12 01:37:32;;;;;;;29.25;23.15;;;18.50;99.90;;;;;;5032732;28;20402;-63
2023/09/12 01:39:58;;;;;;;33.38;27.45;;;18.40;99.90;;;;;;5032012;28;20030;-63
2023/09/12 01:42:27;;;;;;;36.38;30.27;;;18.40;99.90;;;;;;5032708;28;20036;-63
2023/09/12 01:44:56;;;;;;;39.38;27.73;;;18.40;99.90;;;;;;5015391;28;20041;-63
2023/09/12 01:47:23;;;;;;;34.15;26.65;;;18.40;99.90;;;;;;5030800;28;20053;-63
2023/09/12 01:49:54;;;;;;;37.58;27.83;;;18.30;99.90;;;;;;5031651;28;20107;-63
2023/09/12 01:52:21;;;;;;;49.97;35.35;;;18.30;99.90;;;;;;5030299;28;20049;-63
2023/09/12 01:54:49;;;;;;;34.28;27.88;;;18.30;99.90;;;;;;5041632;28;20115;-63
2023/09/12 01:57:15;;;;;;;43.25;29.70;;;18.30;99.90;;;;;;5018028;28;20045;-63
2023/09/12 01:59:41;;;;;;;30.75;25.02;;;18.20;99.90;;;;;;5033390;28;20084;-63
2023/09/12 02:02:07;;;;;;;39.47;31.13;;;18.20;99.90;;;;;;5034500;28;20125;-63
2023/09/12 02:04:33;;;;;;;32.10;25.35;;;18.10;99.90;;;;;;5052238;28;20111;-63
2023/09/12 02:06:58;;;;;;;34.83;26.48;;;18.10;99.90;;;;;;5034141;28;20556;-63
2023/09/12 02:09:24;;;;;;;29.17;25.50;;;18.10;99.90;;;;;;5034407;28;20091;-63
2023/09/12 02:11:51;;;;;;;33.92;27.75;;;18.20;99.90;;;;;;5034541;28;20037;-63
2023/09/12 02:14:18;;;;;;;29.52;23.58;;;18.10;99.90;;;;;;5033567;28;20040;-63
2023/09/12 02:16:44;;;;;;;31.52;23.33;;;18.10;99.90;;;;;;5017461;28;20048;-63
2023/09/12 02:19:10;;;;;;;31.42;23.40;;;18.10;99.90;;;;;;5052323;28;20045;-63
2023/09/12 02:21:36;;;;;;;28.55;21.90;;;18.00;99.90;;;;;;5051346;28;20048;-63
2023/09/12 02:24:01;;;;;;;30.23;24.02;;;18.00;99.90;;;;;;5051961;28;20402;-63
2023/09/12 02:26:27;;;;;;;27.73;21.67;;;17.90;99.90;;;;;;5034153;28;20044;-63
2023/09/12 02:28:53;;;;;;;34.80;27.00;;;18.00;99.90;;;;;;5033628;28;20095;-63
2023/09/12 02:31:18;;;;;;;29.52;24.52;;;18.00;99.90;;;;;;5034092;28;20045;-63
2023/09/12 02:33:45;;;;;;;30.33;22.15;;;17.90;99.90;;;;;;5051804;28;20037;-63
2023/09/12 02:36:11;;;;;;;27.98;23.88;;;17.90;99.90;;;;;;5033193;28;20047;-63
2023/09/12 02:38:36;;;;;;;33.45;24.92;;;17.80;99.90;;;;;;5052015;28;20460;-63
2023/09/12 02:41:02;;;;;;;26.73;21.70;;;17.80;99.90;;;;;;5052187;28;20037;-63
2023/09/12 02:43:29;;;;;;;31.00;24.27;;;17.90;99.90;;;;;;5032942;28;20544;-63
2023/09/12 02:45:54;;;;;;;29.20;24.52;;;17.80;99.90;;;;;;5034361;28;20493;-63
2023/09/12 02:48:20;;;;;;;27.08;22.48;;;17.70;99.90;;;;;;5034043;28;20055;-63
2023/09/12 02:50:46;;;;;;;28.60;22.98;;;17.70;99.90;;;;;;5050484;28;20034;-63
2023/09/12 02:53:11;;;;;;;26.58;21.70;;;17.80;99.90;;;;;;5051682;28;20104;-63
2023/09/12 02:55:41;;;;;;;29.92;23.70;;;17.70;99.90;;;;;;5050788;28;20083;-63
2023/09/12 02:58:07;;;;;;;29.55;23.20;;;17.80;99.90;;;;;;5033949;28;20134;-63
2023/09/12 03:00:40;;;;;;;28.27;22.23;;;17.80;99.90;;;;;;5051633;28;20529;-63
2023/09/12 03:03:07;;;;;;;25.88;21.02;;;17.80;99.90;;;;;;5050739;28;20469;-63
2023/09/12 03:05:32;;;;;;;25.35;22.38;;;17.70;99.90;;;;;;5033603;28;20486;-63
2023/09/12 03:07:58;;;;;;;28.52;21.83;;;17.70;99.90;;;;;;5034134;28;20048;-63
2023/09/12 03:10:24;;;;;;;27.55;20.95;;;17.60;99.90;;;;;;5033809;28;20080;-63
2023/09/12 03:12:49;;;;;;;27.15;23.98;;;17.70;99.90;;;;;;5055572;28;20041;-63
2023/09/12 03:15:15;;;;;;;32.15;23.23;;;17.70;99.90;;;;;;5055477;28;20059;-63
2023/09/12 03:17:41;;;;;;;31.75;23.60;;;17.60;99.90;;;;;;5054715;28;20398;-63
2023/09/12 03:20:09;;;;;;;32.85;24.63;;;17.60;99.90;;;;;;5021011;28;20044;-63
2023/09/12 03:22:37;;;;;;;31.70;25.02;;;17.60;99.90;;;;;;5055368;28;20394;-63
2023/09/12 03:25:04;;;;;;;75.40;37.20;;;17.60;99.90;;;;;;5054835;28;20526;-63
2023/09/12 03:27:30;;;;;;;47.65;29.90;;;17.60;99.90;;;;;;5054737;28;20402;-63
2023/09/12 03:29:56;;;;;;;33.22;25.35;;;17.60;99.90;;;;;;5037437;28;20045;-63
2023/09/12 03:32:21;;;;;;;51.17;33.42;;;17.70;99.90;;;;;;5054465;28;20032;-63
2023/09/12 03:34:47;;;;;;;53.28;34.13;;;17.70;99.90;;;;;;5037075;28;20126;-63
2023/09/12 03:37:13;;;;;;;87.00;43.22;;;17.70;99.90;;;;;;5054693;28;20077;-63
2023/09/12 03:39:38;;;;;;;34.25;27.42;;;17.70;99.90;;;;;;5036400;28;20049;-63
2023/09/12 03:42:04;;;;;;;43.03;27.80;;;17.70;99.90;;;;;;5037624;28;20524;-63
2023/09/12 03:44:30;;;;;;;41.60;29.85;;;17.80;99.90;;;;;;5036923;28;20048;-63
2023/09/12 03:46:56;;;;;;;40.05;29.23;;;17.70;99.90;;;;;;5036262;28;20044;-63
2023/09/12 03:49:22;;;;;;;40.13;29.83;;;17.70;99.90;;;;;;5054186;28;20045;-63
2023/09/12 03:51:48;;;;;;;42.13;29.42;;;17.70;99.90;;;;;;5036343;28;20032;-63
2023/09/12 03:54:14;;;;;;;39.58;28.88;;;17.70;99.90;;;;;;5038290;28;20115;-63
2023/09/12 03:56:39;;;;;;;34.15;26.77;;;17.70;99.90;;;;;;5045678;28;20053;-63
2023/09/12 03:59:05;;;;;;;188.10;61.40;;;17.70;99.90;;;;;;5036259;28;20431;-63
2023/09/12 04:01:31;;;;;;;33.95;27.17;;;17.70;99.90;;;;;;5037343;28;20045;-63
2023/09/12 04:03:56;;;;;;;38.85;26.77;;;17.70;99.90;;;;;;5037139;28;20041;-63
2023/09/12 04:06:22;;;;;;;46.08;28.48;;;17.60;99.90;;;;;;5035960;28;20095;-63
2023/09/12 04:08:48;;;;;;;46.90;27.88;;;17.70;99.90;;;;;;5037162;28;20047;-63
2023/09/12 04:11:13;;;;;;;35.08;26.63;;;17.70;99.90;;;;;;5017348;28;20111;-63
2023/09/12 04:13:39;;;;;;;44.97;26.77;;;17.70;99.90;;;;;;5035875;28;20447;-63
2023/09/12 04:16:05;;;;;;;45.08;26.20;;;17.60;99.90;;;;;;5054698;28;20155;-63
2023/09/12 04:18:30;;;;;;;35.75;26.48;;;17.70;99.90;;;;;;5054039;28;20041;-63
2023/09/12 04:20:57;;;;;;;42.17;28.42;;;17.70;99.90;;;;;;5053197;28;20112;-63
2023/09/12 04:23:25;;;;;;;43.75;30.10;;;17.60;99.90;;;;;;5053848;28;20052;-63
2023/09/12 04:25:50;;;;;;;42.55;30.77;;;17.70;99.90;;;;;;5033109;28;20037;-63
2023/09/12 04:28:16;;;;;;;59.20;35.15;;;17.70;99.90;;;;;;5053517;28;20037;-63
2023/09/12 04:30:42;;;;;;;75.38;40.05;;;17.70;99.90;;;;;;5036981;28;20071;-63
2023/09/12 04:33:08;;;;;;;53.03;30.70;;;17.60;99.90;;;;;;5053595;28;20393;-63
2023/09/12 04:35:34;;;;;;;66.50;35.25;;;17.70;99.90;;;;;;5053476;28;20048;-63
2023/09/12 04:38:00;;;;;;;173.10;58.70;;;17.60;99.90;;;;;;5036595;28;20126;-63
2023/09/12 04:40:25;;;;;;;58.88;34.63;;;17.60;99.90;;;;;;5037945;28;20504;-63
2023/09/12 04:42:51;;;;;;;68.78;36.78;;;17.60;99.90;;;;;;5052339;28;20041;-63
2023/09/12 04:45:17;;;;;;;90.60;42.95;;;17.70;99.90;;;;;;5035570;28;20060;-63
2023/09/12 04:47:42;;;;;;;61.22;35.72;;;17.60;99.90;;;;;;5053684;28;20044;-63
2023/09/12 04:50:08;;;;;;;65.03;37.55;;;17.60;99.90;;;;;;5034832;28;20076;-63
2023/09/12 04:52:34;;;;;;;76.68;41.90;;;17.70;99.90;;;;;;5036119;28;20043;-63
2023/09/12 04:55:00;;;;;;;72.65;39.85;;;17.60;99.90;;;;;;5032422;28;20049;-63
2023/09/12 04:57:28;;;;;;;86.30;45.25;;;17.60;99.90;;;;;;5032120;28;20137;-63
2023/09/12 04:59:53;;;;;;;58.60;39.97;;;17.60;99.90;;;;;;5033967;28;20095;-63
2023/09/12 05:02:19;;;;;;;219.00;65.85;;;17.60;99.90;;;;;;5031635;28;20430;-64
2023/09/12 05:04:45;;;;;;;91.85;49.97;;;17.50;99.90;;;;;;5033318;28;20414;-63
2023/09/12 05:07:10;;;;;;;57.65;41.40;;;17.60;99.90;;;;;;5033715;28;20052;-64
2023/09/12 05:09:36;;;;;;;86.20;46.70;;;17.60;99.90;;;;;;5031563;28;20088;-64
2023/09/12 05:12:02;;;;;;;89.65;49.70;;;17.50;99.90;;;;;;5032715;28;20099;-63
2023/09/12 05:14:28;;;;;;;102.60;50.08;;;17.50;99.90;;;;;;5025113;28;20033;-63
2023/09/12 05:16:53;;;;;;;63.55;42.90;;;17.50;99.90;;;;;;5031394;28;20067;-63
2023/09/12 05:19:19;;;;;;;61.22;40.17;;;17.50;99.90;;;;;;5033342;28;20037;-63
2023/09/12 05:21:45;;;;;;;60.67;39.63;;;17.50;99.90;;;;;;5032848;28;20482;-63
2023/09/12 05:24:10;;;;;;;52.22;36.38;;;17.50;99.90;;;;;;5032502;28;20037;-63
2023/09/12 05:26:36;;;;;;;56.47;37.60;;;17.40;99.90;;;;;;5032001;28;20402;-63
2023/09/12 05:29:02;;;;;;;54.10;36.97;;;17.40;99.90;;;;;;5032045;28;20044;-63
2023/09/12 05:31:28;;;;;;;63.15;39.72;;;17.40;99.90;;;;;;5014096;28;20152;-63
2023/09/12 05:33:53;;;;;;;87.22;42.45;;;17.50;99.90;;;;;;5032622;28;20047;-63
2023/09/12 05:36:19;;;;;;;45.50;34.13;;;17.50;99.90;;;;;;5033087;28;20394;-63
2023/09/12 05:38:45;;;;;;;120.25;52.72;;;17.50;99.90;;;;;;5032006;28;20033;-63
2023/09/12 05:41:10;;;;;;;194.27;64.93;;;17.40;99.90;;;;;;5032759;28;20032;-63
2023/09/12 05:43:36;;;;;;;72.78;37.17;;;17.40;99.90;;;;;;5032941;28;20033;-63
2023/09/12 05:46:02;;;;;;;66.78;37.75;;;17.40;99.90;;;;;;5032006;28;20033;-63
2023/09/12 05:48:28;;;;;;;77.88;40.20;;;17.40;99.90;;;;;;5014667;28;20041;-63
2023/09/12 05:50:53;;;;;;;173.85;55.38;;;17.40;99.90;;;;;;5032103;28;20103;-63
2023/09/12 05:53:19;;;;;;;56.30;35.85;;;17.40;99.90;;;;;;5030187;28;20128;-63
2023/09/12 05:55:45;;;;;;;50.88;35.92;;;17.30;99.90;;;;;;5049289;28;20113;-63
2023/09/12 05:58:10;;;;;;;41.70;29.52;;;17.40;99.90;;;;;;5034205;28;20072;-63
2023/09/12 06:00:36;;;;;;;49.70;31.85;;;17.40;99.90;;;;;;5051655;28;20120;-63
2023/09/12 06:03:02;;;;;;;47.97;32.80;;;17.40;99.90;;;;;;5052686;28;20029;-63
2023/09/12 06:05:28;;;;;;;84.85;45.78;;;17.40;99.90;;;;;;5033523;28;20033;-63
2023/09/12 06:07:54;;;;;;;50.33;32.75;;;17.50;99.90;;;;;;5052638;28;20099;-63
2023/09/12 06:10:19;;;;;;;43.53;32.50;;;17.40;99.90;;;;;;5052263;28;20494;-63
2023/09/12 06:12:45;;;;;;;45.33;32.40;;;17.40;99.90;;;;;;5033415;28;20064;-63
2023/09/12 06:15:11;;;;;;;42.28;31.25;;;17.50;99.90;;;;;;5051555;28;20060;-63
2023/09/12 06:17:37;;;;;;;50.45;34.95;;;17.60;99.90;;;;;;5034367;28;20075;-63
2023/09/12 06:20:06;;;;;;;42.67;31.13;;;17.60;99.90;;;;;;5051752;28;20037;-63
2023/09/12 06:22:32;;;;;;;43.17;30.77;;;17.60;99.90;;;;;;5033839;28;20040;-64
2023/09/12 06:24:57;;;;;;;42.50;31.88;;;17.70;99.90;;;;;;5032648;28;20037;-63
2023/09/12 06:27:23;;;;;;;40.70;31.10;;;17.80;99.90;;;;;;5050563;28;20051;-63
2023/09/12 06:29:49;;;;;;;50.17;33.22;;;17.70;99.90;;;;;;5034029;28;20041;-63
2023/09/12 06:32:16;;;;;;;46.08;32.50;;;17.80;99.90;;;;;;5052051;28;20044;-63
2023/09/12 06:34:42;;;;;;;39.00;29.25;;;17.80;99.90;;;;;;5032796;28;20041;-63
2023/09/12 06:37:09;;;;;;;49.22;33.03;;;17.70;99.90;;;;;;5051887;28;20379;-64
2023/09/12 06:39:34;;;;;;;52.88;36.40;;;17.80;99.90;;;;;;5034098;28;20044;-63
2023/09/12 06:42:00;;;;;;;44.50;31.77;;;17.80;99.90;;;;;;5033347;28;20029;-63
2023/09/12 06:44:26;;;;;;;47.60;33.15;;;17.90;99.90;;;;;;5051505;28;20390;-63
2023/09/12 06:46:51;;;;;;;56.33;34.72;;;18.00;99.90;;;;;;5028647;28;20453;-63
2023/09/12 06:49:17;;;;;;;49.90;35.03;;;18.00;99.90;;;;;;5028485;28;20037;-63
2023/09/12 06:51:43;;;;;;;57.30;37.78;;;18.00;99.90;;;;;;5041933;28;20083;-63
2023/09/12 06:54:08;;;;;;;51.40;35.05;;;18.00;99.90;;;;;;5048879;28;20057;-63
2023/09/12 06:56:37;;;;;;;54.38;37.40;;;18.00;99.90;;;;;;5030300;28;20052;-63
2023/09/12 06:59:04;;;;;;;68.03;39.95;;;18.10;99.90;;;;;;5048896;28;20464;-63
2023/09/12 07:01:30;;;;;;;46.05;31.55;;;18.10;99.90;;;;;;5048678;28;20076;-64
2023/09/12 07:03:56;;;;;;;61.15;38.13;;;18.10;99.90;;;;;;5048183;28;20121;-63
2023/09/12 07:06:22;;;;;;;56.85;36.75;;;18.20;99.90;;;;;;5030727;28;20076;-63
2023/09/12 07:08:48;;;;;;;88.63;47.97;;;18.10;99.90;;;;;;5030794;28;20045;-63
2023/09/12 07:11:14;;;;;;;49.55;35.03;;;18.20;99.90;;;;;;5048728;28;20025;-63
2023/09/12 07:13:40;;;;;;;71.80;42.53;;;18.20;99.90;;;;;;5047584;28;20486;-63
2023/09/12 07:16:05;;;;;;;49.67;34.95;;;18.20;99.90;;;;;;5030669;28;20666;-63
2023/09/12 07:18:34;;;;;;;55.22;36.55;;;18.20;99.90;;;;;;5031444;28;20045;-63
2023/09/12 07:21:02;;;;;;;60.47;38.47;;;18.20;99.90;;;;;;5049601;28;20446;-63
2023/09/12 07:23:28;;;;;;;63.13;41.90;;;18.30;99.90;;;;;;5047962;28;20044;-63
2023/09/12 07:25:57;;;;;;;55.85;36.47;;;18.30;99.90;;;;;;5031252;28;20025;-63
2023/09/12 07:28:26;;;;;;;66.97;40.95;;;18.40;99.90;;;;;;5031286;28;20087;-63
2023/09/12 07:30:52;;;;;;;59.83;39.78;;;18.50;99.90;;;;;;5048641;28;20048;-63
2023/09/12 07:33:18;;;;;;;61.05;41.65;;;18.50;99.90;;;;;;5038797;28;20033;-64
2023/09/12 07:35:44;;;;;;;63.97;40.55;;;18.60;99.90;;;;;;5044135;28;20039;-64
2023/09/12 07:38:10;;;;;;;70.28;44.13;;;18.60;99.90;;;;;;5030140;28;20037;-63
2023/09/12 07:40:36;;;;;;;74.60;45.53;;;18.70;99.90;;;;;;5030598;28;20040;-63
2023/09/12 07:43:02;;;;;;;68.20;44.55;;;18.80;99.90;;;;;;5031020;28;20151;-63
2023/09/12 07:45:29;;;;;;;60.47;41.30;;;18.80;99.90;;;;;;5047659;28;20045;-64
2023/09/12 07:47:55;;;;;;;74.05;45.00;;;18.90;99.90;;;;;;5031309;28;20127;-64
2023/09/12 07:50:20;;;;;;;65.68;41.85;;;19.00;99.90;;;;;;5029714;28;20140;-64
2023/09/12 07:52:46;;;;;;;60.85;40.63;;;18.90;99.90;;;;;;5027162;28;20053;-64
2023/09/12 07:55:12;;;;;;;67.63;43.28;;;19.10;99.90;;;;;;5031685;28;20180;-64
2023/09/12 07:57:38;;;;;;;70.55;44.65;;;19.20;99.90;;;;;;5041207;28;20063;-64
2023/09/12 08:00:09;;;;;;;64.05;42.13;;;19.20;99.90;;;;;;5050806;28;20095;-64
2023/09/12 08:02:35;;;;;;;62.63;42.28;;;19.30;99.90;;;;;;5034476;28;20049;-64
2023/09/12 08:05:01;;;;;;;56.85;40.20;;;19.50;99.90;;;;;;5034010;28;20044;-64
2023/09/12 08:07:26;;;;;;;59.13;39.88;;;19.70;99.90;;;;;;5033966;28;20371;-64
2023/09/12 08:09:54;;;;;;;57.10;40.88;;;19.80;99.90;;;;;;5052048;28;20387;-64
2023/09/12 08:12:21;;;;;;;54.55;38.08;;;19.80;99.90;;;;;;5050987;28;20124;-63
2023/09/12 08:14:47;;;;;;;63.10;41.40;;;19.90;99.90;;;;;;5052032;28;20151;-64
2023/09/12 08:17:14;;;;;;;63.17;42.83;;;20.00;99.90;;;;;;5034471;28;20092;-64
2023/09/12 08:19:40;;;;;;;62.80;38.70;;;20.10;99.90;;;;;;5033710;28;20041;-63
2023/09/12 08:22:09;;;;;;;54.63;35.63;;;20.10;99.90;;;;;;5034193;28;20045;-64
2023/09/12 08:24:36;;;;;;;56.08;38.35;;;20.10;99.90;;;;;;5033617;28;20393;-64
2023/09/12 08:27:02;;;;;;;48.03;36.72;;;20.10;99.90;;;;;;5033357;28;20516;-63
2023/09/12 08:29:29;;;;;;;50.65;36.38;;;20.00;99.90;;;;;;5051139;28;20671;-63
2023/09/12 08:31:54;;;;;;;53.63;37.83;;;20.10;99.90;;;;;;5033674;28;20063;-63
2023/09/12 08:34:21;;;;;;;53.83;33.88;;;20.10;99.90;;;;;;5050719;28;20405;-64
2023/09/12 08:36:47;;;;;;;51.50;36.95;;;20.00;99.90;;;;;;5051279;28;20044;-63
2023/09/12 08:39:16;;;;;;;45.35;33.08;;;20.00;99.90;;;;;;5033852;28;20048;-63
2023/09/12 08:41:47;;;;;;;45.42;33.47;;;20.20;99.90;;;;;;5032920;28;20083;-63
2023/09/12 08:44:13;;;;;;;45.88;33.35;;;20.20;99.90;;;;;;5051445;28;20120;-64
2023/09/12 08:46:42;;;;;;;46.28;31.42;;;20.30;99.90;;;;;;5051556;28;20045;-64
2023/09/12 08:49:09;;;;;;;45.35;32.45;;;20.40;99.90;;;;;;5021613;28;20044;-63
2023/09/12 08:51:41;;;;;;;45.65;33.20;;;20.60;99.90;;;;;;5045325;28;20067;-63
2023/09/12 08:54:07;;;;;;;43.15;30.80;;;20.70;99.90;;;;;;5029604;28;20061;-64
2023/09/12 08:56:38;;;;;;;44.42;34.10;;;20.80;99.90;;;;;;5015433;28;20112;-63
2023/09/12 08:59:04;;;;;;;43.58;32.17;;;20.90;99.90;;;;;;5023086;28;20049;-63
2023/09/12 09:01:31;;;;;;;39.88;30.45;;;21.00;99.90;;;;;;5030570;28;20037;-64
2023/09/12 09:03:57;;;;;;;44.47;32.53;;;21.00;99.90;;;;;;5034234;28;20414;-64
2023/09/12 09:06:24;;;;;;;38.20;28.70;;;21.10;99.90;;;;;;5033464;28;20060;-64
2023/09/12 09:08:53;;;;;;;40.25;29.38;;;21.10;99.90;;;;;;5032259;28;20486;-63
2023/09/12 09:11:18;;;;;;;43.90;29.52;;;21.10;99.90;;;;;;5032596;28;20041;-64
2023/09/12 09:13:44;;;;;;;42.05;29.95;;;21.10;99.90;;;;;;5033962;28;20037;-64
2023/09/12 09:16:14;;;;;;;42.80;30.42;;;21.20;99.90;;;;;;5032825;28;20080;-64
2023/09/12 09:18:54;;;;;;;37.05;26.60;;;21.20;99.90;;;;;;5031731;28;20052;-64
2023/09/12 09:21:25;;;;;;;33.78;24.85;;;21.30;99.90;;;;;;5016460;28;20041;-64
2023/09/12 09:23:53;;;;;;;34.72;25.80;;;21.40;99.90;;;;;;5031100;28;20124;-64
2023/09/12 09:26:18;;;;;;;34.35;26.80;;;21.40;99.90;;;;;;5013488;28;20038;-64
2023/09/12 09:28:44;;;;;;;31.27;22.75;;;21.50;99.90;;;;;;5012098;28;20384;-64
2023/09/12 09:31:12;;;;;;;30.90;22.77;;;21.50;99.90;;;;;;5013508;28;20042;-64
2023/09/12 09:33:39;;;;;;;25.58;19.92;;;21.60;99.90;;;;;;5031906;28;20537;-64
2023/09/12 09:36:07;;;;;;;27.95;20.58;;;21.70;99.90;;;;;;5033438;28;20041;-63
2023/09/12 09:38:35;;;;;;;28.45;20.95;;;21.80;99.90;;;;;;5031803;28;20478;-64
2023/09/12 09:41:04;;;;;;;23.02;18.65;;;21.80;99.90;;;;;;5032950;28;20037;-64
2023/09/12 09:43:31;;;;;;;26.13;19.05;;;21.80;99.90;;;;;;5031113;28;20056;-64
2023/09/12 09:45:58;;;;;;;22.80;18.48;;;21.80;99.90;;;;;;5033464;28;20041;-64
2023/09/12 09:48:28;;;;;;;26.80;18.27;;;21.90;99.90;;;;;;5015143;28;20479;-64
2023/09/12 09:51:03;;;;;;;25.80;15.55;;;22.00;99.90;;;;;;5031467;28;20045;-64
2023/09/12 09:53:32;;;;;;;19.05;15.45;;;22.00;99.90;;;;;;5032733;28;20045;-64
2023/09/12 09:56:14;;;;;;;20.42;15.88;;;22.00;99.90;;;;;;5051101;28;20440;-64
2023/09/12 09:58:56;;;;;;;24.55;16.35;;;22.10;99.90;;;;;;5051804;28;20418;-73
2023/09/12 10:01:30;;;;;;;26.80;16.90;;;22.10;99.90;;;;;;5053162;28;20052;-70
2023/09/12 10:04:00;;;;;;;19.77;15.23;;;22.20;99.90;;;;;;5034343;28;20082;-63
2023/09/12 10:06:27;;;;;;;19.88;14.50;;;22.20;99.90;;;;;;5052132;28;20641;-63
2023/09/12 10:08:54;;;;;;;18.38;15.45;;;22.30;99.90;;;;;;5035378;28;20044;-64
2023/09/12 10:11:27;;;;;;;18.95;14.52;;;22.40;99.90;;;;;;5034151;28;20467;-63
2023/09/12 10:13:59;;;;;;;19.05;13.88;;;22.50;99.90;;;;;;5033556;28;20041;-63
2023/09/12 10:16:31;;;;;;;19.65;15.65;;;22.50;99.90;;;;;;5035057;28;20484;-63
2023/09/12 10:19:06;;;;;;;20.35;15.02;;;22.50;99.90;;;;;;5052003;28;20098;-63
2023/09/12 10:21:34;;;;;;;17.77;13.73;;;22.50;99.90;;;;;;5018292;28;20044;-64
2023/09/12 10:24:02;;;;;;;17.77;13.10;;;22.40;99.90;;;;;;5035055;28;20137;-64
2023/09/12 10:26:29;;;;;;;18.17;13.35;;;22.40;99.90;;;;;;5033579;28;20045;-64
2023/09/12 10:28:55;;;;;;;17.10;11.77;;;22.50;99.90;;;;;;5035113;28;20123;-63
2023/09/12 10:31:23;;;;;;;15.45;11.50;;;22.50;99.90;;;;;;5034792;28;20033;-63
2023/09/12 10:33:50;;;;;;;15.07;10.43;;;22.60;99.90;;;;;;5051553;28;20106;-63
2023/09/12 10:36:18;;;;;;;16.65;11.63;;;22.60;99.90;;;;;;5034284;28;20048;-63
2023/09/12 10:38:46;;;;;;;16.85;12.32;;;22.70;99.90;;;;;;5051759;28;20099;-63
2023/09/12 10:41:16;;;;;;;17.65;12.50;;;22.60;99.90;;;;;;5051081;28;20040;-63
2023/09/12 10:43:46;;;;;;;16.30;10.00;;;22.60;99.90;;;;;;5033877;28;20123;-63
2023/09/12 10:46:12;;;;;;;16.13;11.15;;;22.60;99.90;;;;;;5051927;28;20033;-63
2023/09/12 10:48:41;;;;;;;13.25;9.93;;;22.60;99.90;;;;;;5032721;28;20477;-63
2023/09/12 10:51:08;;;;;;;15.35;11.63;;;22.50;99.90;;;;;;5034226;28;20076;-63
2023/09/12 10:53:34;;;;;;;14.98;11.23;;;22.50;99.90;;;;;;5052399;28;20045;-63
2023/09/12 10:56:01;;;;;;;17.75;12.63;;;22.30;99.90;;;;;;5029760;28;20064;-64
2023/09/12 10:58:27;;;;;;;20.33;12.43;;;22.30;99.90;;;;;;5031019;28;20485;-62
2023/09/12 11:01:25;;;;;;;24.63;13.13;;;22.20;99.90;;;;;;5030243;28;20509;-62
2023/09/12 11:03:51;;;;;;;16.75;11.27;;;22.10;99.90;;;;;;5011541;28;20506;-61
2023/09/12 11:06:22;;;;;;;15.73;12.02;;;21.90;99.90;;;;;;5030236;28;20091;-62
2023/09/12 11:09:14;;;;;;;16.05;12.05;;;21.80;99.90;;;;;;5029317;28;20087;-62
2023/09/12 11:11:44;;;;;;;18.13;12.77;;;21.60;99.90;;;;;;5027913;28;20081;-62
2023/09/12 11:14:10;;;;;;;16.35;12.80;;;21.50;99.90;;;;;;5031128;28;20091;-62
2023/09/12 11:16:36;;;;;;;17.75;12.93;;;21.50;99.90;;;;;;5030957;28;20033;-62
2023/09/12 11:19:18;;;;;;;16.10;13.38;;;21.50;99.90;;;;;;5018264;28;20042;-62
2023/09/12 11:21:49;;;;;;;16.40;13.00;;;21.50;99.90;;;;;;5012289;28;20047;-62
2023/09/12 11:24:16;;;;;;;17.55;13.25;;;21.50;99.90;;;;;;5010176;28;20145;-62
2023/09/12 11:26:59;;;;;;;20.55;13.35;;;21.50;99.90;;;;;;5013646;28;20449;-62
2023/09/12 11:29:35;;;;;;;17.75;12.98;;;21.60;99.90;;;;;;5013193;28;20398;-62
2023/09/12 11:32:02;;;;;;;16.20;12.18;;;21.70;99.90;;;;;;5033203;28;20475;-62
2023/09/12 11:34:31;;;;;;;22.55;14.75;;;21.80;99.90;;;;;;5033060;28;20033;-63
2023/09/12 11:37:00;;;;;;;21.48;15.55;;;22.10;99.90;;;;;;5030468;28;20085;-63
2023/09/12 11:39:34;;;;;;;17.90;12.85;;;22.20;99.90;;;;;;5046762;28;20045;-62
2023/09/12 11:42:00;;;;;;;;;;;22.10;99.90;;;;;;5033568;28;20478;-62
2023/09/12 11:44:32;;;;;;;18.23;13.40;;;22.00;99.90;;;;;;5034268;28;19931;-62
2023/09/12 11:47:06;;;;;;;26.42;12.60;;;22.00;99.90;;;;;;5017773;28;21293;-62
2023/09/12 11:49:41;;;;;;;19.40;12.10;;;21.80;99.90;;;;;;5033910;28;20099;-62
2023/09/12 11:52:12;;;;;;;16.45;13.02;;;21.90;99.90;;;;;;5032970;28;20049;-62
2023/09/12 11:54:41;;;;;;;17.00;13.77;;;21.80;99.90;;;;;;5029424;28;20187;-62
2023/09/12 11:57:08;;;;;;;15.07;13.48;;;21.80;99.90;;;;;;5020257;28;20475;-62
2023/09/12 11:59:40;;;;;;;16.58;13.75;;;21.70;99.90;;;;;;5034457;28;20037;-62
2023/09/12 12:02:08;;;;;;;15.35;11.73;;;21.70;99.90;;;;;;5016780;28;20041;-63
2023/09/12 12:04:34;;;;;;;16.42;11.88;;;21.70;99.90;;;;;;5033923;28;20045;-62
2023/09/12 12:07:01;;;;;;;15.68;11.38;;;21.70;99.90;;;;;;5034645;28;20380;-62
2023/09/12 12:09:27;;;;;;;14.85;11.45;;;21.70;99.90;;;;;;5015306;28;20060;-62
2023/09/12 12:11:53;;;;;;;12.73;11.13;;;21.60;99.90;;;;;;5017634;28;20398;-62
2023/09/12 12:14:19;;;;;;;25.90;12.73;;;21.60;99.90;;;;;;5016180;28;20041;-62
2023/09/12 12:16:46;;;;;;;14.98;11.50;;;21.70;99.90;;;;;;5018717;28;20040;-62
2023/09/12 12:19:13;;;;;;;15.13;12.75;;;21.70;99.90;;;;;;5015217;28;20041;-62
2023/09/12 12:21:42;;;;;;;15.48;11.98;;;21.70;99.90;;;;;;5034479;28;20044;-61
2023/09/12 12:24:12;;;;;;;21.75;12.00;;;21.70;99.90;;;;;;5034151;28;20034;-62
2023/09/12 12:26:37;;;;;;;14.68;10.27;;;21.80;99.90;;;;;;5029382;28;20124;-63
2023/09/12 12:29:04;;;;;;;13.50;9.32;;;21.70;99.90;;;;;;5015647;28;20117;-63